24° Triathlon de la Grande Motte - 18/05/2014

Open Sprint (Cadets et plus...)


Pl Do. Nom - Surname Prénom - Name S-Cat /cat Club - Team TEMPS - Time /sx T1 P1 Tps1 Vit1 P2 Tps2 Vit2 P3 Tps3 Vit3
1 162 HEWITT ANDREA FS3 1 POISSY TRIATHLON 1:05:24.71 1 1:19.9 2 0:10:29.6 4,3 13 0:37:06.4 35,6 2 0:17:48.5 16,8
2 187 BARTHE ÉTIENNE MCA 1 TRIATHLON MANOSQUE 1:06:32.20 1 1:42.9 10 0:12:05.5 3,7 7 0:36:49.9 35,8 1 0:17:36.7 17,0
3 1092 FRAYSSE JOSIAN   2 MAT 2 1:06:35.95 2 1:25.6 1 0:10:24.4 4,3 14 0:37:07.8 35,6 6 0:19:03.6 15,7
4 91 VAISSIERE JULIEN MS3 1 CEVENNES ENDURANCE 1:07:27.28 3 1:57.8 12 0:12:06.5 3,7 5 0:35:59.7 36,7 9 0:19:20.9 15,5
5 185 DA COSTA MELVIN MS1 1 TRIATHLÈTE CLUB NARBONNAIS 1:07:42.81 4 1:47.8 5 0:10:42.7 4,2 19 0:37:24.8 35,3 10 0:19:35.2 15,3
6 132 BOYER THIERRY MV2 1 MAUGUIO CARNON TRIATHLON 1:07:52.36 5 1:44.4 30 0:13:23.0 3,4 2 0:35:31.3 37,2 5 0:18:57.8 15,8
7 74 KAUP MATÉO MS2 1 A. L. ECHIROLLES TRIATHLON 1:08:06.31 6 1:47.1 7 0:11:52.5 3,8 6 0:36:12.1 36,5 13 0:20:01.5 15,0
8 191 MOSSLER JOHANN MS2 2 TRIATHLON ROMANAIS PEAGEOIS 1:08:55.89 7 1:50.0 23 0:12:57.4 3,5 4 0:35:55.7 36,7 14 0:20:02.7 15,0
9 92 VARA PHILIPPE MV1 1 CEVENNES ENDURANCE 1:09:24.86 8 2:02.6 78 0:15:09.0 3,0 3 0:35:33.4 37,1 3 0:18:42.3 16,0
10 165 RIGAL CÉDRIC MS4 1 RODEZ TRIATHLON 12 1:10:13.78 9 1:53.7 40 0:13:53.6 3,2 17 0:37:16.2 35,4 7 0:19:03.8 15,7
11 171 LOPEZ CAROLINE FS3 2 ST RAPHAEL TRIATHLON 1:10:23.95 2 1:35.7 6 0:11:09.8 4,0 60 0:40:19.9 32,7 4 0:18:54.1 15,9
12 117 KARCENTY FABRICE MS4 2 FREE IRON TEAM 1:10:32.82 10 2:02.7 21 0:12:52.7 3,5 31 0:37:56.0 34,8 11 0:19:43.9 15,2
13 223 DUPONT LIONEL MS3 2 NON LICENCIE 1:11:18.00 11 2:00.0 50 0:14:18.8 3,1 10 0:37:01.8 35,6 12 0:19:57.3 15,0
14 181 PERRIER NICOLAS MV1 2 TOBESPORT 1:11:21.04 12   35 0:13:39.5 3,3 8 0:36:54.7 35,8 22 0:20:46.7 14,4
15 126 MARTINEZ FRANCK MS3 3 LES CHAMEAUX BEZIERS TRIATHLON 1:11:25.84 13 0:00.2 33 0:13:32.7 3,3 15 0:37:14.2 35,4 18 0:20:38.8 14,5
16 164 BEC ETIENNE MV1 3 RODEZ TRIATHLON 12 1:11:47.14 14 2:06.9 16 0:12:28.6 3,6 42 0:38:35.4 34,2 20 0:20:43.0 14,5
17 229 JEANJEAN NICOLAS MS3 4 NON LICENCIE 1:12:11.48 15 2:08.5 28 0:13:13.5 3,4 39 0:38:24.1 34,4 17 0:20:33.7 14,6
18 148     6   1:12:22.45 1 3:00.2 59 0:14:38.9 3,1 25 0:37:38.4 35,1 15 0:20:05.0 14,9
19 152 GARCIN FRANTZ MS1 2 MONTPELLIER AGGLO TRIATHLON 1:12:25.40 16 1:54.9 18 0:12:39.5 3,6 65 0:40:33.9 32,5 8 0:19:11.9 15,6
20 146 ARMAND GAETAN MS1 3 MONTPELLIER AGGLO TRIATHLON 1:12:39.32 17                    
21 125 GUANTER YAN MS1 4 LES ANGLES TRIATHLON 1:13:01.86 18 2:39.8 9 0:11:55.2 3,8 21 0:37:32.0 35,2 93 0:23:34.5 12,7
22 147 BACQUART BERTRAND MS3 5 MONTPELLIER AGGLO TRIATHLON 1:13:18.82 19 1:50.5 17 0:12:31.2 3,6 30 0:37:55.4 34,8 69 0:22:52.1 13,1
23 163 DODET SANDRA FJU 1 POISSY TRIATHLON 1:13:19.53 3 1:33.4 4 0:10:39.8 4,2 84 0:41:54.7 31,5 21 0:20:44.9 14,5
24 82 BACHELIER DAMIEN MS2 3 AVIGNON LE PONTET TRIATHLON 1:13:26.36 20 1:48.1 55 0:14:32.0 3,1 33 0:38:05.4 34,7 24 0:20:48.9 14,4
25 219 DELBOS BAPTISTE MS3 6 NON LICENCIE 1:13:31.87 21 2:39.6 43 0:13:57.9 3,2 45 0:38:45.0 34,1 23 0:20:48.8 14,4
26 121 BENE NICOLAS MS1 5 HOCHFELDEN 1:13:36.29 22 2:15.8 14 0:12:15.2 3,7 61 0:40:23.9 32,7 27 0:20:57.0 14,3
27 149 DUPONT EDDY MS2 4 MONTPELLIER AGGLO TRIATHLON 1:13:41.57 23 2:03.8 22 0:12:55.0 3,5 20 0:37:24.9 35,3 84 0:23:21.6 12,8
28 151 GARCIA PHILIPPE MV3 1 MONTPELLIER AGGLO TRIATHLON 1:13:42.93 24 1:52.4 68 0:14:54.0 3,0 26 0:37:39.8 35,0 28 0:21:09.0 14,2
29 188 ROUCOULES JEAN FRANÇOIS MV3 2 TRIATHLON NIMES 1:13:44.37 25 2:15.5 88 0:15:25.1 2,9 11 0:37:04.9 35,6 31 0:21:14.2 14,1
30 131 BERGER PATRICE MS4 3 MAUGUIO CARNON TRIATHLON 1:13:52.23 26 2:01.9 54 0:14:30.6 3,1 35 0:38:07.4 34,6 30 0:21:14.1 14,1
31 193 COURBARD DENIS MS4 4 TRIRUN FRONTIGNAN 1:14:10.18 27 1:52.4 34 0:13:37.8 3,3 48 0:38:47.5 34,0 39 0:21:44.7 13,8
32 160 ASCIONE JEAN-CHRISTOPHE MS4 5 ODYSSEUM NATATION 1:14:12.09 28 2:10.2 31 0:13:27.1 3,3 27 0:37:43.7 35,0 75 0:23:01.1 13,0
33 275 NOGUERA PIERRE MV1 4 NON LICENCIE 1:14:24.09 29 2:12.6 49 0:14:15.5 3,2 50 0:39:14.6 33,6 26 0:20:53.8 14,4
34 153 GILLES DIDIER MV2 2 MONTPELLIER AGGLO TRIATHLON 1:14:28.32 30 2:17.6 61 0:14:43.4 3,1 29 0:37:52.7 34,8 40 0:21:52.2 13,7
35 95 PENTA SEBASTIEN MS4 6 CÉVENNES ENDURANCE 1:14:38.29 31 2:06.4 95 0:15:37.7 2,9 9 0:36:56.9 35,7 46 0:22:03.6 13,6
36 183 TEOFILI FABRICE MV4 1 TOULON TRIATHLON 1:14:43.96 32 2:13.4 87 0:15:24.6 2,9 12 0:37:05.7 35,6 50 0:22:13.5 13,5
37 203 TISSOT ANTHONY MS2 5 VO2 TRIATHLON 1:14:54.12 33 2:16.7 77 0:15:07.9 3,0 22 0:37:34.1 35,1 49 0:22:11.9 13,5
38 101 DEREGNAUCOURT DAVID MS3 7 CROCOS D'AIRAIN NIMES TRIATHLON 1:14:55.42 34 1:52.4 73 0:14:59.6 3,0 28 0:37:45.5 35,0 48 0:22:10.2 13,5
39 265 LETHVILLIER JOSSELIN MS4 7 NON LICENCIE 1:15:02.45 35 2:27.3 83 0:15:21.6 2,9 16 0:37:15.1 35,4 56 0:22:25.5 13,4
40 81 CANAGUIER AUDE FS2 1 ASVEL TRIATHLON 1:15:11.34 4 2:28.8 58 0:14:38.6 3,1 34 0:38:07.3 34,6 55 0:22:25.4 13,4
41 178 JULIA DAVID MV1 5 TOBESPORT 1:15:11.48 36 2:08.8 39 0:13:52.4 3,2 51 0:39:16.5 33,6 45 0:22:02.4 13,6
42 84 JAUFFRET KEVIN MS1 6 AVIGNON LE PONTET TRIATHLON 1:15:12.50 37 2:21.0 48 0:14:15.1 3,2 53 0:39:28.0 33,4 35 0:21:29.3 14,0
43 90 PRECONE MATHIAS MS4 8 CEVENNES ENDURANCE 1:15:12.81 38 1:55.7 38 0:13:51.2 3,2 18 0:37:17.2 35,4 101 0:24:04.2 12,5
44 284 ROCH STÉPHANE MV1 6 NON LICENCIE 1:15:43.61 39 2:57.8 26 0:13:09.3 3,4 71 0:41:00.0 32,2 37 0:21:34.1 13,9
45 128 ARCELLA LAURENT MS3 8 LOUPIAN TRI NATURE 1:15:54.46 40 2:10.2 29 0:13:20.7 3,4 36 0:38:07.7 34,6 113 0:24:25.9 12,3
46 79 CHENELLE MARC MV3 3 AS MURET TRIATHLON 1:16:11.54 41 1:49.1 25 0:13:06.4 3,4 38 0:38:14.7 34,5 125 0:24:50.3 12,1
47 206 ESTIENNE CHRISTOPHE MV1 7 WAIMEA TRIATHLON LUNEL 1:16:13.23 42 2:06.2 94 0:15:35.8 2,9 43 0:38:42.2 34,1 41 0:21:55.1 13,7
48 161 GILLES HUGUES MV2 3 POISSY TRIATHLON 1:16:18.01 43 1:48.9 57 0:14:34.3 3,1 37 0:38:09.4 34,6 92 0:23:34.1 12,7
49 156 REDWITZ RAFAEL MS3 9 MONTPELLIER VOLLEY 1:16:49.17 44 2:40.7 27 0:13:11.7 3,4 74 0:41:16.2 32,0 52 0:22:21.2 13,4
50 177 MARIN BRUNO MS3 10 TERRA SPORT ORGANISATION 1:16:53.81 45 2:23.1 85 0:15:22.9 2,9 75 0:41:21.7 31,9 16 0:20:09.1 14,9
51 77 HUGON EMERYC MS2 6 ALES TRIATHLON 1:16:59.04 46 2:23.3 47 0:14:12.3 3,2 41 0:38:30.0 34,3 107 0:24:16.6 12,4
52 142 GENIN JULIEN MS3 11 NIMES TRIATHLON 1:17:00.62 47 2:09.1 65 0:14:48.6 3,0 47 0:38:45.9 34,1 86 0:23:26.0 12,8
53 118 PONCE BENJAMIN MS3 12 FSPN POLICE 1:17:08.15 48 1:00.2 8 0:11:52.6 3,8 128 0:44:36.3 29,6 19 0:20:39.1 14,5
54 80 NOYON CYRIL MS4 9 ASMSE TRI 42 1:17:13.81 49 2:49.8 70 0:14:54.6 3,0 67 0:40:37.2 32,5 38 0:21:41.9 13,8
55 244 FELENC SEBASTIEN MV1 8 NON LICENCIE 1:17:14.01 50 2:28.2 44 0:14:00.8 3,2 70 0:40:56.5 32,2 51 0:22:16.5 13,5
56 255 CAUSSE ALBIN MV1 9 NON LICENCIE 1:17:21.65 51 2:18.8 106 0:15:53.9 2,8 24 0:37:37.9 35,1 97 0:23:49.7 12,6
57 213 CHENELLE LAURA FCA 1 NON LICENCIE 1:17:49.67 5 2:04.3 15 0:12:19.2 3,7 96 0:42:30.1 31,1 74 0:23:00.2 13,0
58 83 DE CECCO CHRSITOPHE MS1 7 AVIGNON LE PONTET TRIATHLON 1:17:52.86 52 2:18.2 42 0:13:57.4 3,2 44 0:38:43.7 34,1 132 0:25:11.7 11,9
59 105 LARGUIER LAURENT MS4 10 CROCOS D'AIRAIN NIMES TRIATHLON 1:17:54.09 53 1:00.9 132 0:17:00.0 2,6 55 0:40:04.4 32,9 25 0:20:49.6 14,4
60 232 LAGATHU CHRISTOPHE MV1 10 NON LICENCIE 1:18:04.39 54   20 0:12:50.2 3,5 68 0:40:43.5 32,4 116 0:24:30.6 12,2
61 205 EGIDI PIETRO MV2 4 WAIMEA TRIATHLON LUNEL 1:18:09.06 55 2:35.0 36 0:13:43.8 3,3 56 0:40:06.8 32,9 108 0:24:18.3 12,3
62 207 NADAL MICHAEL MV1 11 WAIMEA TRIATHLON LUNEL 1:18:09.25 56 1:56.4 82 0:15:18.4 2,9 58 0:40:07.7 32,9 63 0:22:43.0 13,2
63 133 FOURREAU GREGORY MS4 11 MAUGUIO CARNON TRIATHLON 1:18:15.61 57 2:34.6 46 0:14:10.1 3,2 85 0:41:57.6 31,5 47 0:22:07.7 13,6
64 167 RUIZ FLORENT MS3 13 SALINDRES TRIATHLON 1:18:21.06 58 2:28.0 51 0:14:19.8 3,1 88 0:42:05.9 31,4 42 0:21:55.2 13,7
65 154 LEBERT PIERRE-HUGO MCA 2 MONTPELLIER AGGLO TRIATHLON 1:18:26.67 59 1:56.0 19 0:12:41.4 3,5 66 0:40:34.4 32,5 131 0:25:10.7 11,9
66 172 COURBIS GILLES MV2 5 TC2R 1:18:27.48 60 2:33.8 64 0:14:46.6 3,0 64 0:40:33.7 32,5 77 0:23:07.0 13,0
67 123 MARTEL CYRIL MS4 12 LA CIOTAT TRIATHLON 1:18:45.71 61 3:06.1 74 0:15:00.5 3,0 76 0:41:22.6 31,9 53 0:22:22.5 13,4
68 136 OLLIER STEPHANE MV1 12 MAUGUIO CARNON TRIATHLON 1:18:55.21 62 2:08.3 69 0:14:54.3 3,0 77 0:41:28.0 31,8 60 0:22:32.7 13,3
69 274 MOUSQUES NICOLAS MS3 14 NON LICENCIE 1:18:59.17 63 3:10.7 63 0:14:44.2 3,1 91 0:42:19.5 31,2 43 0:21:55.3 13,7
70 204 CAPPELLE GREGORY MS4 13 WAIMEA TRIATHLON LUNEL 1:19:03.04 64 2:37.7 53 0:14:27.8 3,1 63 0:40:29.0 32,6 103 0:24:06.1 12,4
71 150 GALTIER LAURENT MV1 13 MONTPELLIER AGGLO TRIATHLON 1:19:15.21 65 2:41.7 113 0:16:11.4 2,8 78 0:41:31.7 31,8 36 0:21:31.9 13,9
72 89 PENTA DAVID MV1 14 CEVENNES ENDURANCE 1:19:16.46 66 2:17.8 134 0:17:06.7 2,6 52 0:39:16.8 33,6 70 0:22:52.8 13,1
73 75 BREST FLORIAN MS2 7 ALES TRIATHLON 1:19:18.62 67 2:36.0 32 0:13:31.8 3,3 87 0:42:03.9 31,4 95 0:23:42.7 12,7
74 243 CLAIR JEREMY MS1 8 NON LICENCIE 1:19:27.78 68 2:34.2 67 0:14:49.6 3,0 89 0:42:09.7 31,3 58 0:22:28.4 13,3
75 179 LE CHAPELAIN GILLES MV3 4 TOBESPORT 1:19:34.48 69 1:55.2 153 0:17:44.2 2,5 40 0:38:28.9 34,3 83 0:23:21.2 12,8
76 295 VAYSSET DAVID MV1 15 NON LICENCIE 1:19:42.73 70 3:18.9 119 0:16:23.9 2,7 86 0:42:03.7 31,4 32 0:21:15.0 14,1
77 168 VERDU REGIS MV1 16 SALINDRES TRIATHLON 1:19:54.82 71 2:36.7 125 0:16:34.0 2,7 57 0:40:06.9 32,9 80 0:23:13.8 12,9
78 112 BARBOULE PASCAL MV1 17 FLEURY MEDITERRANEE TRIATHLON 1:20:01.29 72 2:47.7 128 0:16:47.3 2,7 62 0:40:25.1 32,7 67 0:22:48.7 13,2
79 192 MICHELIER FRANCK MJU 1 TRIBIKE34 1:21:01.92 73 2:20.4 45 0:14:06.7 3,2 54 0:39:29.0 33,4 157 0:27:26.1 10,9
80 230 KEHR GREGORY MS4 14 NON LICENCIE 1:21:06.92 74 2:01.3 79 0:15:10.0 3,0 80 0:41:37.5 31,7 110 0:24:19.3 12,3
81 145 PLANE EUGENIE FS1 1 MONTPELLIER AGGLO TRIATHLON 1:21:07.59 6 2:14.0 105 0:15:53.5 2,8 113 0:43:52.4 30,1 34 0:21:21.6 14,0
82 106 MARTRE CHRISTOPHE MV2 6 CROCOS D'AIRAIN NIMES TRIATHLON 1:21:17.86 75 2:05.2 91 0:15:31.4 2,9 79 0:41:33.3 31,8 106 0:24:13.0 12,4
83 96 PROUVOYEUR BAPTISTE MS1 9 CHARTRES METROPOLE TRIATHLON 1:21:34.29 76 2:39.4 37 0:13:44.5 3,3 125 0:44:33.7 29,6 81 0:23:15.9 12,9
84 135 MORILLAS CHRISTOPHE MS2 8 MAUGUIO CARNON TRIATHLON 1:21:34.56 77                    
85 170 JOHNSON HENRY MJU 2 ST CYPRIEN 1:21:35.38 78 1:52.7 13 0:12:12.6 3,7 93 0:42:25.2 31,1 151 0:26:57.5 11,1
86 270 MALET JOFFREY MS1 10 NON LICENCIE 1:21:45.36 79 2:30.6 98 0:15:39.3 2,9 106 0:43:12.0 30,6 72 0:22:53.9 13,1
87 210 BONVALET FRÉDÉRIC MV2 7 NON LICENCIE 1:21:47.62 80 2:50.0 52 0:14:23.6 3,1 123 0:44:30.8 29,7 71 0:22:53.1 13,1
88 246 AÏTELLI DAMIEN MS3 15 NON LICENCIE 1:21:54.73 81 2:33.5 154 0:17:44.9 2,5 100 0:42:52.8 30,8 33 0:21:16.8 14,1
89 182 ROUMIGUIERE JEROME MS4 15 TOBESPORT 1:21:56.15 82 2:46.9 148 0:17:31.5 2,6 69 0:40:54.8 32,3 89 0:23:29.7 12,8
90 103 GRASSET GERALD MV3 5 CROCOS D'AIRAIN NIMES TRIATHLON 1:22:00.29 83 2:48.6 138 0:17:10.3 2,6 81 0:41:40.1 31,7 79 0:23:09.8 13,0
91 291 SYNAEGHEL PATRICK MV2 8 NON LICENCIE 1:22:02.90 84 2:26.5 76 0:15:05.4 3,0 117 0:44:02.5 30,0 73 0:22:54.9 13,1
92 159 VERNHET ERIC MV4 2 NIMES TRIATHLON 1:22:06.25 85 2:26.0 115 0:16:12.6 2,8 99 0:42:49.2 30,8 76 0:23:04.3 13,0
93 251 ARTIERES ROCH MV1 18 NON LICENCIE 1:22:19.18 86 2:54.3 93 0:15:34.0 2,9 97 0:42:34.5 31,0 104 0:24:10.5 12,4
94 260 GARBOUGE FRÉDÉRIC MS3 16 NON LICENCIE 1:22:19.42 87 2:16.3 139 0:17:11.7 2,6 115 0:43:55.1 30,1 29 0:21:12.4 14,1
95 143 PECHIER THOMAS MJU 3 MONTPELLIER AGGLO TRIATHLON 1:22:41.15 88 2:38.2 90 0:15:30.7 2,9 109 0:43:18.7 30,5 98 0:23:51.6 12,6
96 263 GREZE CÉRICE MV1 19 NON LICENCIE 1:22:44.78 89 4:40.8 169 0:18:38.7 2,4 1 0:34:50.4 37,9 178 0:29:15.5 10,3
97 86 CARDON FLORIAN MS1 11 CASTELNAUDARY TRIATHLON CLUB 1:22:54.04 90 2:57.9 170 0:18:38.7 2,4 83 0:41:50.3 31,5 54 0:22:24.8 13,4
98 180 LOISELEUR STÉPHANE MV2 9 TOBESPORT 1:22:55.28 91 2:22.7 24 0:13:05.0 3,4 111 0:43:47.5 30,1 141 0:26:02.6 11,5
99 94 OCTAU GILLES MV3 6 CÉVENNES ENDURANCE 1:23:03.39 92 2:58.8 121 0:16:27.3 2,7 73 0:41:10.2 32,1 134 0:25:25.7 11,8
100 227 GARANDEAU DAVID MS4 16 NON LICENCIE 1:23:10.84 93 1:00.0 60 0:14:42.6 3,1 103 0:43:06.6 30,6 133 0:25:21.4 11,8
101 290 SIEDEL JEROME MS4 17 NON LICENCIE 1:23:14.25 94 3:05.8 114 0:16:12.1 2,8 127 0:44:35.2 29,6 57 0:22:26.8 13,4
102 241 BOIX PATRICE MV1 20 NON LICENCIE 1:23:17.06 95 3:15.7 103 0:15:51.2 2,8 98 0:42:39.5 30,9 122 0:24:46.2 12,1
103 99 NAFRAICHEUR CLAUDE MV4 3 CROCO D`AIRAIN NIMES TRIATHLON 1:23:18.37 96 2:52.5 147 0:17:30.3 2,6 72 0:41:01.9 32,2 121 0:24:46.0 12,1
104 282 PIERQUIN FRÉDÉRIC MV3 7 NON LICENCIE 1:23:24.96 97 3:14.6 116 0:16:14.0 2,8 92 0:42:21.6 31,2 123 0:24:49.2 12,1
105 276 OURY LILIAN MCA 3 NON LICENCIE 1:23:28.53 98 1:52.6 149 0:17:34.2 2,6 59 0:40:08.5 32,9 139 0:25:45.7 11,6
106 228 GATCHITCH FRANCOIS MS4 18 NON LICENCIE 1:23:34.75 99 3:46.6 150 0:17:35.5 2,6 105 0:43:08.8 30,6 68 0:22:50.2 13,1
107 198 JEANJEAN JULIEN MS3 17 USNM 1:23:42.46 100 2:37.6 66 0:14:49.1 3,0 116 0:43:59.5 30,0 127 0:24:53.8 12,0
108 201 GRIOLET ANDRÉ MV3 8 VILLENEUVE RTT 1:23:50.17 101 2:57.8 100 0:15:45.8 2,9 107 0:43:15.0 30,5 124 0:24:49.2 12,1
109 202 FABRE MICHEL MV3 9 VO2 TRIATHLON 1:23:51.46 102 2:17.3 99 0:15:44.4 2,9 101 0:42:57.7 30,7 130 0:25:09.3 11,9
110 88 DELAPLACE B ASTIEN MS3 18 CEVENNES ENDURANCE 1:24:30.23 103 3:18.3 120 0:16:24.0 2,7 95 0:42:29.3 31,1 137 0:25:36.8 11,7
111 216 CLUTIER GUILLAUME MS4 19 NON LICENCIE 1:24:36.23 104 2:49.4 81 0:15:13.0 3,0 156 0:47:21.0 27,9 44 0:22:02.1 13,6
112 285 ROGER JEAN-BAPTISTE MS4 20 NON LICENCIE 1:24:42.62 105 2:47.5 41 0:13:54.9 3,2 102 0:43:03.7 30,7 161 0:27:43.9 10,8
113 189 BLACHON FREDERIC MS4 21 TRIATHLON ROMANAIS PEAGEOIS 1:24:52.17 106 2:21.6 102 0:15:47.0 2,9 121 0:44:23.8 29,7 118 0:24:41.2 12,2
114 279 PANA PHILIPPE MV4 4 NON LICENCIE 1:24:56.34 107 3:07.3 107 0:15:56.1 2,8 122 0:44:27.1 29,7 117 0:24:33.0 12,2
115 238 ROCHETTE LAURENT MS4 22 NON LICENCIE 1:25:02.75 108 3:05.9 92 0:15:33.5 2,9 135 0:45:09.8 29,2 109 0:24:19.2 12,3
116 109 PULLARA JEAN-FRANÇOIS MV1 21 CROCOS D'AIRAIN NIMES TRIATHLON 1:25:13.68 109 3:07.6 86 0:15:23.1 2,9 108 0:43:16.0 30,5 143 0:26:34.4 11,3
117 122 MOURET YANN MS3 19 JOGGING CASTELNAU 1:25:15.71 110 2:52.6 109 0:16:00.4 2,8 142 0:46:06.2 28,6 78 0:23:09.0 13,0
118 137 HORTALA JEROME MS4 23 MAUGUIO-CARNON TRIATHLON 1:25:23.23 111 2:21.2 122 0:16:27.6 2,7 120 0:44:13.6 29,8 119 0:24:41.8 12,1
119 173 MALITOWSKI FRANCK MS4 24 TCCATALAN 1:25:33.61 112 3:00.1 96 0:15:38.7 2,9 119 0:44:12.9 29,9 138 0:25:41.9 11,7
120 286 RUBIRA JEAN-FRANCOIS MV2 10 NON LICENCIE 1:25:40.48 113 3:01.4 156 0:17:56.0 2,5 134 0:45:07.7 29,2 62 0:22:36.6 13,3
121 116 ORMIERES MICHEL MV4 5 FLEURY MEDITERRANEE TRIATHLON 1:25:44.18 114 2:42.8 80 0:15:12.4 3,0 133 0:45:03.4 29,3 135 0:25:28.3 11,8
122 218 DALLARD GUILLAUME MS3 20 NON LICENCIE 1:25:50.48 115 3:12.5 72 0:14:58.4 3,0 159 0:47:26.7 27,8 85 0:23:25.3 12,8
123 138 CAIATO ANDRE MV3 10 MILLES PATTES TRIATHLON GRENOBLE 1:26:02.56 116 2:52.0 71 0:14:58.4 3,0 110 0:43:43.0 30,2 156 0:27:21.0 11,0
124 294 VALETTE JEAN-BAPTISTE MS3 21 NON LICENCIE 1:26:17.86 117 2:52.9 97 0:15:39.0 2,9 148 0:46:37.5 28,3 99 0:24:01.2 12,5
125 100 DOS SANTOS JOSÉ MV2 11 CROCO D'AIRAIN NIMES TRIATHLON 1:26:36.00 118 2:50.4 193 0:21:21.9 2,1 82 0:41:47.9 31,6 87 0:23:26.1 12,8
126 288 SANCHEZ FRANÇOIS MV2 12 NON LICENCIE 1:26:57.42 119 3:25.0 124 0:16:32.5 2,7 147 0:46:37.0 28,3 96 0:23:47.8 12,6
127 235 MINAIR MICHAEL MS3 22 NON LICENCIE 1:27:04.06 120 5:34.5 123 0:16:29.1 2,7 154 0:47:14.0 27,9 82 0:23:20.9 12,8
128 236 PEAN BRUNO MV4 6 NON LICENCIE 1:27:04.19 121                    
129 119 BESANCENOT ETIENNE MS3 23 GRAND NARBONNE TRIATHLON 1:27:07.40 122 2:55.6 56 0:14:33.1 3,1 90 0:42:18.7 31,2 185 0:30:15.4 9,9
130 299 VIGOUROUX JÉROME MS4 25 NON LICENCIE 1:27:33.54 123 4:14.8 135 0:17:07.7 2,6 160 0:47:37.9 27,7 66 0:22:47.8 13,2
131 267 LOPES DE LIMA JOACHIM MV3 11 NON LICENCIE 1:27:34.84 124 3:22.1 110 0:16:01.9 2,8 149 0:47:02.3 28,1 115 0:24:30.5 12,2
132 298 VIDALINC GUILLAUME MS4 26 NON LICENCIE 1:27:36.21 125 3:47.9 151 0:17:38.1 2,6 153 0:47:13.2 28,0 64 0:22:44.8 13,2
133 214 CIBIEL JEAN-CLAUDE MV3 12 NON LICENCIE 1:27:43.82 126 3:27.3 172 0:18:53.3 2,4 136 0:45:21.0 29,1 88 0:23:29.3 12,8
134 289 SAUZET STEPHANE MV1 22 NON LICENCIE 1:27:44.04 127 2:54.1 142 0:17:18.1 2,6 140 0:45:56.1 28,7 114 0:24:29.7 12,2
135 184 NENCI REMO MV7 1 TRI RUN FRONTIGNAN 1:28:03.03 128 2:32.3 171 0:18:52.2 2,4 104 0:43:08.2 30,6 140 0:26:02.5 11,5
136 93 COUGOULAINE YANNICK MJU 4 CÉVENNES ENDURANCE 1:28:11.90 129 2:33.6 62 0:14:43.6 3,1 114 0:43:54.4 30,1 180 0:29:33.8 10,1
137 208 BADAROUX HUGO MS4 27 NON LICENCIE 1:28:22.07 130 2:13.7 75 0:15:03.1 3,0 131 0:44:54.5 29,4 170 0:28:24.3 10,6
138 209 BONNAUD BERTRAND MV3 13 NON LICENCIE 1:28:29.09 131 4:07.6 104 0:15:52.7 2,8 161 0:47:43.9 27,7 126 0:24:52.4 12,1
139 134 MODELSKI GUILLAUME MS3 24 MAUGUIO CARNON TRIATHLON 1:28:30.18 132 2:39.2 181 0:19:34.6 2,3 130 0:44:50.9 29,4 102 0:24:04.5 12,5
140 155 PY BERNARD MV7 2 MONTPELLIER AGGLO TRIATHLON 1:28:36.32 133 2:43.8 112 0:16:08.2 2,8 118 0:44:12.0 29,9 166 0:28:16.0 10,6
141 78 MIKOLAJCZYK PATRICK MV3 14 ALES TRIATHLON 1:28:40.15 134 3:55.2 178 0:19:13.2 2,3 137 0:45:23.3 29,1 100 0:24:03.5 12,5
142 225 FLAGEUL BRUNO MV2 13 NON LICENCIE 1:28:47.32 135 4:21.5 118 0:16:22.1 2,7 170 0:48:52.0 27,0 91 0:23:33.1 12,7
143 271 MASTORINO ÉRIC MV2 14 NON LICENCIE 1:28:50.93 136 3:13.8 146 0:17:22.6 2,6 151 0:47:07.2 28,0 111 0:24:21.0 12,3
144 196 MATTIONI MARCO MV4 7 USA TRIATHLON 1:28:51.82 137 2:46.5 143 0:17:20.0 2,6 155 0:47:19.0 27,9 105 0:24:12.7 12,4
145 226 FLECHE ARNAUD MS2 9 NON LICENCIE 1:28:55.17 138 3:15.6 11 0:12:05.5 3,7 174 0:49:19.9 26,8 158 0:27:29.6 10,9
146 174 FROISSARD ANTHONY MS4 28 TEAM FORCE3K 1:29:04.36 139 2:09.1 89 0:15:26.4 2,9 32 0:38:00.3 34,7 195 0:35:37.5 8,4
147 130 BAUCHE CHRISTOPHE MS2 10 MAUGUIO CARNON TRIATHLON 1:29:14.28 140 2:42.4 155 0:17:51.5 2,5 167 0:48:37.1 27,1 65 0:22:45.5 13,2
148 287 SALINIER DAVID MV1 23 NON LICENCIE 1:29:26.23 141 2:54.0 141 0:17:16.9 2,6 112 0:43:51.0 30,1 168 0:28:18.1 10,6
149 272 MOIROUD XAVIER MS4 29 NON LICENCIE 1:29:40.93 142 2:47.3 145 0:17:22.2 2,6 169 0:48:47.2 27,1 90 0:23:31.4 12,8
150 239 FIGUERAS PATRICK MV4 8 NON LICENCIE 1:29:46.70 143 2:45.7 189 0:20:58.3 2,1            
151 269 LUKIC ANDRÉ MV3 15 NON LICENCIE 1:29:47.98 144 3:33.0 158 0:18:05.5 2,5 132 0:44:57.5 29,4 146 0:26:44.9 11,2
152 186 COLLADO DAVID MS4 30 TRIATHLON LUNEL WAIMEA 1:29:58.90 145 2:43.2 175 0:19:09.2 2,3 141 0:46:04.1 28,7 120 0:24:45.5 12,1
153 111 VAN WELDEN OLIVIER MV2 15 CROCOS D'AIRAIN NIMES TRIATHLON 1:30:05.12 146 3:02.6 129 0:16:48.2 2,7 124 0:44:33.2 29,6 173 0:28:43.6 10,4
154 254 BOSC DAVID MV1 24 NON LICENCIE 1:30:16.11 147   108 0:15:57.2 2,8 157 0:47:22.1 27,9 150 0:26:56.7 11,1
155 144 PICHON LAURENT MV1 25 MONTPELLIER AGGLO TRIATHLON 1:30:42.86 148 2:43.1 184 0:20:08.2 2,2 143 0:46:09.7 28,6 112 0:24:24.8 12,3
156 240 AZOR FABRICE MS4 31 NON LICENCIE 1:30:58.20 149 4:18.2 111 0:16:03.9 2,8 163 0:48:06.0 27,4 148 0:26:48.2 11,2
157 157 LACROIX ALAIN MV3 16 NIMES TRIATHLON 1:31:00.73 150 3:14.9 167 0:18:36.3 2,4 126 0:44:34.6 29,6 163 0:27:49.6 10,8
158 104 JOLY GUY MV3 17 CROCOS D'AIRAIN NIMES TRIATHLON 1:31:24.14 151 2:33.6 162 0:18:15.7 2,5 129 0:44:45.8 29,5 169 0:28:22.5 10,6
159 261 GERVAIS CHRITIAN MV1 26 NON LICENCIE 1:31:48.96 152 2:37.3 163 0:18:28.2 2,4 138 0:45:38.2 28,9 160 0:27:42.4 10,8
160 224 FADEL ALAIN MV2 16 NON LICENCIE 1:31:52.51 153 5:53.6 160 0:18:11.9 2,5 145 0:46:30.0 28,4 153 0:27:10.5 11,0
161 166 DEYGAS EMMANUEL MV3 18 SAINT MATHIEU ATHLETIC 1:32:18.76 154 3:41.9 137 0:17:09.5 2,6 177 0:49:40.8 26,6 136 0:25:28.3 11,8
162 120 DUBERNET MATTHIEU MS4 32 GRAND NARBONNE TRIATHLON 1:32:39.65 155 2:49.3 140 0:17:13.7 2,6 152 0:47:09.4 28,0 167 0:28:16.4 10,6
163 300 CAMPAGNE THOMAS MS4 33 NON LICENCIE 1:32:58.54 156 2:54.2 180 0:19:19.6 2,3 139 0:45:52.0 28,8 162 0:27:46.7 10,8
164 211 BRUGERE LAURENT MS4 34 NON LICENCIE 1:32:59.62 157                    
165 266 LOEFFLER ERIC MS3 25 NON LICENCIE 1:33:13.76 158 4:16.5 133 0:17:03.1 2,6 172 0:48:58.4 27,0 154 0:27:12.1 11,0
166 283 PINAULT FREDERIC MS3 26 NON LICENCIE 1:34:07.92 159 4:06.2 101 0:15:46.9 2,9 186 0:51:33.7 25,6 147 0:26:47.2 11,2
167 194 MIZZON ALBERT MS3 27 TRYSSINGEAUX 1:34:17.26 160 3:00.5 159 0:18:11.3 2,5 150 0:47:05.8 28,0 175 0:29:00.0 10,3
168 141 ASTIER CHRISTOPHE MV1 27 MONTPELLIER AGGLO TRIATHLON 1:34:22.50 161 3:29.7 164 0:18:29.0 2,4 173 0:49:01.7 26,9 149 0:26:51.6 11,2
169 257 DEMAILLY GUILLAUME MS2 11 NON LICENCIE 1:34:27.76 162 3:50.7 174 0:19:05.1 2,4 171 0:48:53.5 27,0 142 0:26:29.0 11,3
170 195 CASANOVA MARC MV5 1 TTC 1:34:31.65 163 2:45.2 130 0:16:53.6 2,7 144 0:46:25.1 28,4 188 0:31:12.9 9,6
171 273 MONTAGNARD ANDRE MV5 2 NON LICENCIE 1:34:42.84 164 2:45.9 136 0:17:08.5 2,6 146 0:46:33.4 28,4 187 0:31:00.8 9,7
172 256 CZEPYGA MICKAEL MS3 28 NON LICENCIE 1:35:19.06 165 3:04.0 176 0:19:10.2 2,3 164 0:48:18.7 27,3 164 0:27:50.0 10,8
173 259 FONTUGNE LUDOVIC MV1 28 NON LICENCIE 1:35:38.75 166 6:05.1 144 0:17:21.5 2,6 183 0:50:56.4 25,9 155 0:27:20.7 11,0
174 250 ARNAUD ERIC MV4 9 NON LICENCIE 1:35:47.75 167 3:46.5 192 0:21:18.7 2,1 176 0:49:25.8 26,7 128 0:25:03.1 12,0
175 217 COLLANGE CHRISTOPHE MV1 29 NON LICENCIE 1:36:01.79 168 2:50.8 194 0:21:29.0 2,1 162 0:47:48.3 27,6 145 0:26:44.3 11,2
176 258 FERRARETTO AURELIA FS4 1 NON LICENCIE 1:36:23.84 7 3:00.1 182 0:19:46.0 2,3 179 0:49:56.5 26,4 144 0:26:41.3 11,2
177 248 AMET YANNICK MV1 30 NON LICENCIE 1:36:25.18 169 4:21.5 186 0:20:10.7 2,2 168 0:48:39.8 27,1 159 0:27:34.6 10,9
178 190 BLACHON MARJORIE FS4 2 TRIATHLON ROMANAIS PEAGEOIS 1:36:35.11 8 3:15.9 152 0:17:43.8 2,5 180 0:50:21.8 26,2 171 0:28:29.4 10,5
179 237 PEREZ LAURENT MV2 17 NON LICENCIE 1:37:00.51 170 3:07.5 190 0:20:58.4 2,1 158 0:47:26.1 27,8 172 0:28:35.9 10,5
180 252 AUBERTOT ANTOINE MS4 35 NON LICENCIE 1:37:33.11 171 6:33.9 127 0:16:42.6 2,7 185 0:51:08.5 25,8 181 0:29:41.9 10,1
181 220 DESFOSSEZ NICOLAS MV3 19 NON LICENCIE 1:37:35.09 172 3:33.6 183 0:19:56.2 2,3 166 0:48:26.1 27,3 177 0:29:12.7 10,3
182 277 OUVRARD CHRISTOPHE MV3 20 NON LICENCIE 1:37:46.56 173 3:19.6 157 0:18:04.7 2,5 178 0:49:52.0 26,5 182 0:29:49.8 10,1
183 247 ALTER ERIC MV4 10 NON LICENCIE 1:38:39.93 174 4:25.5 126 0:16:38.0 2,7 165 0:48:20.6 27,3 194 0:33:41.2 8,9
184 280 PANADES SABINE FS4 3 NON LICENCIE 1:39:06.42 9 3:48.3 161 0:18:14.0 2,5 184 0:50:57.9 25,9 183 0:29:54.3 10,0
185 281 PECHEUR NICOLAS MS2 12 NON LICENCIE 1:39:39.26 175 4:33.3 168 0:18:37.2 2,4 193 0:53:05.1 24,9 165 0:27:56.8 10,7
186 233 LESUEUR FABRICE MV1 31 NON LICENCIE 1:39:40.28 176 3:13.8 195 0:23:09.1 1,9 175 0:49:25.2 26,7 152 0:27:05.9 11,1
187 249 ARNAUD CHLOE FCA 2 NON LICENCIE 1:39:57.53 10 3:46.3 131 0:16:56.0 2,7 191 0:52:12.8 25,3 186 0:30:48.6 9,7
188 197 FAURE PHILIPPE MS4 36 USN MONTPELLIER 1:40:54.39 177 4:11.0 177 0:19:12.1 2,3 192 0:52:42.8 25,0 174 0:28:59.4 10,3
189 139 DESPELCHIN CARINE FV1 1 MJC PLAN DE CUQUES TRIATHLON 1:41:59.14 11 3:15.2 173 0:19:02.0 2,4 187 0:51:41.0 25,5 189 0:31:16.0 9,6
190 253 AUNAVE STEPHANE MV1 32 NON LICENCIE 1:42:14.67 178 4:22.5 188 0:20:23.6 2,2 189 0:51:55.6 25,4 184 0:29:55.3 10,0
191 97 D'ORNANO RAPHAELLE FS2 2 CNP PARIS 1:42:50.40 12 4:29.7 117 0:16:14.6 2,8 198 1:01:31.3 21,5 129 0:25:04.3 12,0
192 268 LUIGI PASCAL MV1 33 NON LICENCIE 1:43:04.84 179 2:37.3 84 0:15:21.9 2,9 188 0:51:48.1 25,5 196 0:35:54.7 8,4
193 278 PANA EMMA FS2 3 NON LICENCIE 1:43:41.78 13 3:41.9 165 0:18:30.2 2,4 194 0:53:41.3 24,6 190 0:31:30.2 9,5
194 234 MANOUELIDES ADELINE FS4 4 NON LICENCIE 1:45:09.76 14 3:28.0 196 0:23:52.5 1,9 190 0:52:01.1 25,4 179 0:29:16.0 10,3
195 107 NOURRY ERIC MV3 21 CROCOS D'AIRAIN NIMES TRIATHLON 1:45:16.93 180 3:19.8 191 0:21:05.4 2,1 181 0:50:38.7 26,1 193 0:33:32.7 8,9
196 293 TRIBOULET GAELLE FS4 5 NON LICENCIE 1:49:24.61 15 3:22.2 166 0:18:30.7 2,4 199 1:01:42.8 21,4 176 0:29:11.0 10,3
197 200 SABATIE ELISABETH FV6 1 VICHY TRIATHLON 1:51:04.23 16 4:07.6 187 0:20:19.2 2,2 195 0:53:51.0 24,5 198 0:36:53.9 8,1
198 245 SEUX LUDOVIC MV1 34 NON LICENCIE 1:51:16.90 181 3:50.2 185 0:20:09.9 2,2 196 0:54:35.1 24,2 197 0:36:31.8 8,2
199 199 DAL CERRO CHRISTELLE FS4 6 VCSSP SECTION TRIATHLON 1:52:13.89 17 3:35.1 179 0:19:16.8 2,3 197 1:00:38.9 21,8 191 0:32:18.0 9,3
200 242 CASSAN JESUS MV5 3 NON LICENCIE 2:00:20.51 182 3:24.4 197 0:36:22.4 1,2 182 0:50:51.3 26,0 192 0:33:06.7 9,1
201 140 BEFORT PATRICE MS4 0 MONTAUBAN 0:00:00.00 ABD 3:19.2 200 0:15:03.4 ABD 200 1:06:15.8 ABD     ABD
202 262 GIRARD DENIS MV2 0 NON LICENCIE 0:00:00.00 ABD 3:22.0 202 0:15:58.8 ABD     ABD     ABD
203 264 JOHNSON ANDREW MV3 0 NON LICENCIE 0:00:00.00 ABD   203 0:16:46.0 ABD     ABD     ABD
204 98 PAUL OLIVIER MV1 0 CROCO D AIRAIN NIMES TRIATHLON 1:16:10.98 DSQ 2:12.6 199 0:14:26.9 DSQ 49 0:39:11.7 DSQ 59 0:22:32.2 DSQ
205 127 GROU RENÉ MV5 0 LES CHAMEAUX DE BEZIERS 1:16:24.17 DSQ 1:57.6 201 0:15:12.0 DSQ 23 0:37:35.9 DSQ 94 0:23:36.2 DSQ
206 87 SENIA CELINE FJU 0 CEVENNE ENDURANCE 1:16:28.53 DSQ 0:00.3 198 0:11:23.8 DSQ 94 0:42:28.8 DSQ 61 0:22:35.8 DSQ
207 110 SEGUIN THIERRY MV3 0 CROCOS D'AIRAIN NIMES TRIATHLON 1:23:37.28 DSQ   204 0:17:19.2 DSQ     DSQ     DSQ